sensor_id;sensor_type;location;lat;lon;timestamp;P1;durP1;ratioP1;P2;durP2;ratioP2
37781;SDS011;23621;50.878;4.584;2024-03-17T00:01:45;6.95;;;6.28;;
37781;SDS011;23621;50.878;4.584;2024-03-17T00:03:46;8.50;;;5.88;;
37781;SDS011;23621;50.878;4.584;2024-03-17T00:05:47;7.05;;;6.38;;
37781;SDS011;23621;50.878;4.584;2024-03-17T00:07:48;7.57;;;6.40;;
37781;SDS011;23621;50.878;4.584;2024-03-17T00:09:48;7.32;;;6.22;;
37781;SDS011;23621;50.878;4.584;2024-03-17T00:11:49;6.93;;;6.22;;
37781;SDS011;23621;50.878;4.584;2024-03-17T00:13:50;7.10;;;6.40;;
37781;SDS011;23621;50.878;4.584;2024-03-17T00:15:50;7.40;;;6.40;;
37781;SDS011;23621;50.878;4.584;2024-03-17T00:17:51;6.55;;;5.95;;
37781;SDS011;23621;50.878;4.584;2024-03-17T00:19:52;7.38;;;6.68;;
37781;SDS011;23621;50.878;4.584;2024-03-17T00:21:53;7.70;;;6.68;;
37781;SDS011;23621;50.878;4.584;2024-03-17T00:23:53;6.82;;;6.18;;
37781;SDS011;23621;50.878;4.584;2024-03-17T00:25:54;7.45;;;6.68;;
37781;SDS011;23621;50.878;4.584;2024-03-17T00:27:55;8.32;;;7.05;;
37781;SDS011;23621;50.878;4.584;2024-03-17T00:29:57;8.65;;;7.43;;
37781;SDS011;23621;50.878;4.584;2024-03-17T00:31:58;8.05;;;7.20;;
37781;SDS011;23621;50.878;4.584;2024-03-17T00:33:59;7.88;;;7.05;;
37781;SDS011;23621;50.878;4.584;2024-03-17T00:35:59;8.05;;;7.35;;
37781;SDS011;23621;50.878;4.584;2024-03-17T00:38:00;9.50;;;7.25;;
37781;SDS011;23621;50.878;4.584;2024-03-17T00:40:03;7.55;;;6.88;;
37781;SDS011;23621;50.878;4.584;2024-03-17T00:42:06;7.88;;;7.07;;
37781;SDS011;23621;50.878;4.584;2024-03-17T00:44:07;7.25;;;6.65;;
37781;SDS011;23621;50.878;4.584;2024-03-17T00:46:07;7.95;;;7.15;;
37781;SDS011;23621;50.878;4.584;2024-03-17T00:48:08;7.82;;;6.43;;
37781;SDS011;23621;50.878;4.584;2024-03-17T00:50:09;7.97;;;7.18;;
37781;SDS011;23621;50.878;4.584;2024-03-17T00:52:11;7.60;;;6.55;;
37781;SDS011;23621;50.878;4.584;2024-03-17T00:54:12;8.65;;;7.40;;
37781;SDS011;23621;50.878;4.584;2024-03-17T00:56:12;7.55;;;6.85;;
37781;SDS011;23621;50.878;4.584;2024-03-17T00:58:13;7.78;;;6.88;;
37781;SDS011;23621;50.878;4.584;2024-03-17T01:00:14;7.43;;;6.65;;
37781;SDS011;23621;50.878;4.584;2024-03-17T01:02:15;7.78;;;6.60;;
37781;SDS011;23621;50.878;4.584;2024-03-17T01:04:16;7.28;;;6.57;;
37781;SDS011;23621;50.878;4.584;2024-03-17T01:06:17;7.65;;;6.72;;
37781;SDS011;23621;50.878;4.584;2024-03-17T01:08:18;7.38;;;6.65;;
37781;SDS011;23621;50.878;4.584;2024-03-17T01:10:19;9.15;;;6.07;;
37781;SDS011;23621;50.878;4.584;2024-03-17T01:12:20;7.22;;;6.38;;
37781;SDS011;23621;50.878;4.584;2024-03-17T01:14:21;6.75;;;6.15;;
37781;SDS011;23621;50.878;4.584;2024-03-17T01:16:21;7.15;;;6.40;;
37781;SDS011;23621;50.878;4.584;2024-03-17T01:18:23;7.32;;;6.32;;
37781;SDS011;23621;50.878;4.584;2024-03-17T01:20:23;7.75;;;6.95;;
37781;SDS011;23621;50.878;4.584;2024-03-17T01:22:24;8.25;;;6.93;;
37781;SDS011;23621;50.878;4.584;2024-03-17T01:24:24;8.05;;;7.10;;
37781;SDS011;23621;50.878;4.584;2024-03-17T01:26:25;7.30;;;6.68;;
37781;SDS011;23621;50.878;4.584;2024-03-17T01:28:26;7.85;;;6.63;;
37781;SDS011;23621;50.878;4.584;2024-03-17T01:30:27;12.85;;;6.55;;
37781;SDS011;23621;50.878;4.584;2024-03-17T01:32:27;7.18;;;6.47;;
37781;SDS011;23621;50.878;4.584;2024-03-17T01:34:28;7.13;;;6.43;;
37781;SDS011;23621;50.878;4.584;2024-03-17T01:36:29;7.60;;;6.88;;
37781;SDS011;23621;50.878;4.584;2024-03-17T01:38:29;10.55;;;7.30;;
37781;SDS011;23621;50.878;4.584;2024-03-17T01:40:30;7.97;;;7.28;;
37781;SDS011;23621;50.878;4.584;2024-03-17T01:42:31;8.00;;;7.20;;
37781;SDS011;23621;50.878;4.584;2024-03-17T01:44:31;8.27;;;6.95;;
37781;SDS011;23621;50.878;4.584;2024-03-17T01:46:32;8.82;;;7.93;;
37781;SDS011;23621;50.878;4.584;2024-03-17T01:48:33;8.23;;;6.90;;
37781;SDS011;23621;50.878;4.584;2024-03-17T01:50:35;8.10;;;7.30;;
37781;SDS011;23621;50.878;4.584;2024-03-17T01:52:36;7.78;;;6.97;;
37781;SDS011;23621;50.878;4.584;2024-03-17T01:54:37;7.95;;;7.13;;
37781;SDS011;23621;50.878;4.584;2024-03-17T01:56:39;9.23;;;8.30;;
37781;SDS011;23621;50.878;4.584;2024-03-17T01:58:40;8.77;;;7.80;;
37781;SDS011;23621;50.878;4.584;2024-03-17T02:00:44;8.93;;;7.50;;
37781;SDS011;23621;50.878;4.584;2024-03-17T02:02:45;9.55;;;8.23;;
37781;SDS011;23621;50.878;4.584;2024-03-17T02:04:45;9.57;;;8.18;;
37781;SDS011;23621;50.878;4.584;2024-03-17T02:06:46;8.95;;;8.07;;
37781;SDS011;23621;50.878;4.584;2024-03-17T02:08:47;9.45;;;8.50;;
37781;SDS011;23621;50.878;4.584;2024-03-17T02:10:54;10.60;;;8.75;;
37781;SDS011;23621;50.878;4.584;2024-03-17T02:12:55;9.82;;;8.55;;
37781;SDS011;23621;50.878;4.584;2024-03-17T02:14:57;9.80;;;8.88;;
37781;SDS011;23621;50.878;4.584;2024-03-17T02:17:00;11.07;;;9.07;;
37781;SDS011;23621;50.878;4.584;2024-03-17T02:19:02;10.30;;;8.98;;
37781;SDS011;23621;50.878;4.584;2024-03-17T02:21:03;10.40;;;9.13;;
37781;SDS011;23621;50.878;4.584;2024-03-17T02:23:05;10.45;;;9.05;;
37781;SDS011;23621;50.878;4.584;2024-03-17T02:25:06;10.40;;;9.40;;
37781;SDS011;23621;50.878;4.584;2024-03-17T02:27:10;11.52;;;9.40;;
37781;SDS011;23621;50.878;4.584;2024-03-17T02:29:11;11.82;;;9.93;;
37781;SDS011;23621;50.878;4.584;2024-03-17T02:31:12;10.90;;;9.40;;
37781;SDS011;23621;50.878;4.584;2024-03-17T02:33:15;10.40;;;9.10;;
37781;SDS011;23621;50.878;4.584;2024-03-17T02:35:15;10.40;;;9.38;;
37781;SDS011;23621;50.878;4.584;2024-03-17T02:37:16;10.65;;;9.55;;
37781;SDS011;23621;50.878;4.584;2024-03-17T02:39:16;11.38;;;10.27;;
37781;SDS011;23621;50.878;4.584;2024-03-17T02:41:35;11.30;;;10.10;;
37781;SDS011;23621;50.878;4.584;2024-03-17T02:43:36;11.75;;;10.55;;
37781;SDS011;23621;50.878;4.584;2024-03-17T02:45:37;12.32;;;10.10;;
37781;SDS011;23621;50.878;4.584;2024-03-17T02:47:38;13.68;;;10.95;;
37781;SDS011;23621;50.878;4.584;2024-03-17T02:49:39;11.27;;;9.43;;
37781;SDS011;23621;50.878;4.584;2024-03-17T02:51:43;12.80;;;10.55;;
37781;SDS011;23621;50.878;4.584;2024-03-17T02:53:44;14.77;;;10.85;;
37781;SDS011;23621;50.878;4.584;2024-03-17T02:55:45;11.98;;;10.27;;
37781;SDS011;23621;50.878;4.584;2024-03-17T02:57:46;13.30;;;10.75;;
37781;SDS011;23621;50.878;4.584;2024-03-17T02:59:47;13.52;;;10.52;;
37781;SDS011;23621;50.878;4.584;2024-03-17T03:01:47;11.68;;;10.48;;
37781;SDS011;23621;50.878;4.584;2024-03-17T03:03:48;12.07;;;10.82;;
37781;SDS011;23621;50.878;4.584;2024-03-17T03:05:49;12.38;;;11.07;;
37781;SDS011;23621;50.878;4.584;2024-03-17T03:07:49;13.20;;;11.48;;
37781;SDS011;23621;50.878;4.584;2024-03-17T03:09:50;12.57;;;11.27;;
37781;SDS011;23621;50.878;4.584;2024-03-17T03:11:52;12.57;;;11.13;;
37781;SDS011;23621;50.878;4.584;2024-03-17T03:13:52;15.25;;;11.38;;
37781;SDS011;23621;50.878;4.584;2024-03-17T03:15:53;13.25;;;11.43;;
37781;SDS011;23621;50.878;4.584;2024-03-17T03:17:54;13.05;;;11.77;;
37781;SDS011;23621;50.878;4.584;2024-03-17T03:19:54;13.30;;;11.30;;
37781;SDS011;23621;50.878;4.584;2024-03-17T03:21:55;13.68;;;11.95;;
37781;SDS011;23621;50.878;4.584;2024-03-17T03:23:56;14.30;;;12.80;;
37781;SDS011;23621;50.878;4.584;2024-03-17T03:25:57;13.80;;;11.93;;
37781;SDS011;23621;50.878;4.584;2024-03-17T03:28:00;13.35;;;11.77;;
37781;SDS011;23621;50.878;4.584;2024-03-17T03:30:01;16.42;;;12.50;;
37781;SDS011;23621;50.878;4.584;2024-03-17T03:32:03;14.27;;;12.68;;
37781;SDS011;23621;50.878;4.584;2024-03-17T03:34:04;13.10;;;11.70;;
37781;SDS011;23621;50.878;4.584;2024-03-17T03:36:10;14.38;;;11.70;;
37781;SDS011;23621;50.878;4.584;2024-03-17T03:38:12;16.38;;;12.18;;
37781;SDS011;23621;50.878;4.584;2024-03-17T03:40:14;14.27;;;12.27;;
37781;SDS011;23621;50.878;4.584;2024-03-17T03:42:17;13.45;;;12.05;;
37781;SDS011;23621;50.878;4.584;2024-03-17T03:44:18;14.25;;;12.10;;
37781;SDS011;23621;50.878;4.584;2024-03-17T03:46:19;13.73;;;11.80;;
37781;SDS011;23621;50.878;4.584;2024-03-17T03:48:20;13.45;;;11.68;;
37781;SDS011;23621;50.878;4.584;2024-03-17T03:50:22;14.23;;;12.15;;
37781;SDS011;23621;50.878;4.584;2024-03-17T03:52:23;13.68;;;12.27;;
37781;SDS011;23621;50.878;4.584;2024-03-17T03:54:25;13.00;;;11.70;;
37781;SDS011;23621;50.878;4.584;2024-03-17T03:56:25;13.73;;;12.30;;
37781;SDS011;23621;50.878;4.584;2024-03-17T03:58:29;14.20;;;12.55;;
37781;SDS011;23621;50.878;4.584;2024-03-17T04:00:29;15.15;;;12.82;;
37781;SDS011;23621;50.878;4.584;2024-03-17T04:02:31;12.52;;;11.07;;
37781;SDS011;23621;50.878;4.584;2024-03-17T04:04:34;13.98;;;11.25;;
37781;SDS011;23621;50.878;4.584;2024-03-17T04:06:35;13.50;;;11.88;;
37781;SDS011;23621;50.878;4.584;2024-03-17T04:08:37;13.32;;;12.02;;
37781;SDS011;23621;50.878;4.584;2024-03-17T04:10:43;12.98;;;11.57;;
37781;SDS011;23621;50.878;4.584;2024-03-17T04:12:44;13.63;;;11.38;;
37781;SDS011;23621;50.878;4.584;2024-03-17T04:14:45;13.90;;;11.68;;
37781;SDS011;23621;50.878;4.584;2024-03-17T04:16:46;14.13;;;12.38;;
37781;SDS011;23621;50.878;4.584;2024-03-17T04:18:47;12.80;;;11.60;;
37781;SDS011;23621;50.878;4.584;2024-03-17T04:20:48;13.10;;;11.38;;
37781;SDS011;23621;50.878;4.584;2024-03-17T04:22:49;13.98;;;11.27;;
37781;SDS011;23621;50.878;4.584;2024-03-17T04:24:50;13.55;;;11.30;;
37781;SDS011;23621;50.878;4.584;2024-03-17T04:26:54;13.35;;;10.52;;
37781;SDS011;23621;50.878;4.584;2024-03-17T04:28:55;13.02;;;11.30;;
37781;SDS011;23621;50.878;4.584;2024-03-17T04:31:07;13.85;;;11.13;;
37781;SDS011;23621;50.878;4.584;2024-03-17T04:33:17;11.98;;;10.75;;
37781;SDS011;23621;50.878;4.584;2024-03-17T04:35:18;12.48;;;11.27;;
37781;SDS011;23621;50.878;4.584;2024-03-17T04:37:18;15.02;;;11.48;;
37781;SDS011;23621;50.878;4.584;2024-03-17T04:39:19;14.05;;;10.80;;
37781;SDS011;23621;50.878;4.584;2024-03-17T04:41:20;12.60;;;11.30;;
37781;SDS011;23621;50.878;4.584;2024-03-17T04:43:20;12.05;;;9.95;;
37781;SDS011;23621;50.878;4.584;2024-03-17T04:45:21;12.82;;;10.95;;
37781;SDS011;23621;50.878;4.584;2024-03-17T04:47:22;15.32;;;10.68;;
37781;SDS011;23621;50.878;4.584;2024-03-17T04:49:22;11.82;;;10.63;;
37781;SDS011;23621;50.878;4.584;2024-03-17T04:51:23;12.60;;;10.07;;
37781;SDS011;23621;50.878;4.584;2024-03-17T04:53:24;11.73;;;10.63;;
37781;SDS011;23621;50.878;4.584;2024-03-17T04:55:25;11.95;;;9.88;;
37781;SDS011;23621;50.878;4.584;2024-03-17T04:57:25;12.25;;;10.32;;
37781;SDS011;23621;50.878;4.584;2024-03-17T04:59:26;12.50;;;11.07;;
37781;SDS011;23621;50.878;4.584;2024-03-17T05:01:27;12.05;;;10.80;;
37781;SDS011;23621;50.878;4.584;2024-03-17T05:03:28;10.68;;;9.65;;
37781;SDS011;23621;50.878;4.584;2024-03-17T05:05:28;11.50;;;10.27;;
37781;SDS011;23621;50.878;4.584;2024-03-17T05:07:29;11.70;;;10.13;;
37781;SDS011;23621;50.878;4.584;2024-03-17T05:09:30;14.68;;;10.73;;
37781;SDS011;23621;50.878;4.584;2024-03-17T05:11:30;13.68;;;10.40;;
37781;SDS011;23621;50.878;4.584;2024-03-17T05:13:32;10.85;;;9.77;;
37781;SDS011;23621;50.878;4.584;2024-03-17T05:15:36;11.57;;;9.75;;
37781;SDS011;23621;50.878;4.584;2024-03-17T05:17:36;11.80;;;10.38;;
37781;SDS011;23621;50.878;4.584;2024-03-17T05:19:37;10.15;;;9.15;;
37781;SDS011;23621;50.878;4.584;2024-03-17T05:21:38;10.93;;;9.77;;
37781;SDS011;23621;50.878;4.584;2024-03-17T05:23:38;11.15;;;10.07;;
37781;SDS011;23621;50.878;4.584;2024-03-17T05:25:39;11.55;;;9.95;;
37781;SDS011;23621;50.878;4.584;2024-03-17T05:27:40;12.20;;;10.02;;
37781;SDS011;23621;50.878;4.584;2024-03-17T05:29:40;11.40;;;9.15;;
37781;SDS011;23621;50.878;4.584;2024-03-17T05:31:41;11.05;;;9.15;;
37781;SDS011;23621;50.878;4.584;2024-03-17T05:33:46;10.85;;;9.68;;
37781;SDS011;23621;50.878;4.584;2024-03-17T05:35:51;13.13;;;9.57;;
37781;SDS011;23621;50.878;4.584;2024-03-17T05:37:55;10.90;;;9.73;;
37781;SDS011;23621;50.878;4.584;2024-03-17T05:39:56;11.02;;;9.77;;
37781;SDS011;23621;50.878;4.584;2024-03-17T05:41:57;10.75;;;9.57;;
37781;SDS011;23621;50.878;4.584;2024-03-17T05:43:58;12.57;;;9.63;;
37781;SDS011;23621;50.878;4.584;2024-03-17T05:46:00;10.85;;;9.02;;
37781;SDS011;23621;50.878;4.584;2024-03-17T05:48:01;11.15;;;9.10;;
37781;SDS011;23621;50.878;4.584;2024-03-17T05:50:05;10.52;;;9.43;;
37781;SDS011;23621;50.878;4.584;2024-03-17T05:52:06;10.60;;;8.80;;
37781;SDS011;23621;50.878;4.584;2024-03-17T05:54:08;10.75;;;9.35;;
37781;SDS011;23621;50.878;4.584;2024-03-17T05:56:09;10.55;;;9.18;;
37781;SDS011;23621;50.878;4.584;2024-03-17T05:58:15;10.73;;;9.38;;
37781;SDS011;23621;50.878;4.584;2024-03-17T06:00:16;10.32;;;9.25;;
37781;SDS011;23621;50.878;4.584;2024-03-17T06:02:17;10.68;;;9.48;;
37781;SDS011;23621;50.878;4.584;2024-03-17T06:04:18;10.10;;;9.02;;
37781;SDS011;23621;50.878;4.584;2024-03-17T06:06:19;11.48;;;8.80;;
37781;SDS011;23621;50.878;4.584;2024-03-17T06:08:20;9.38;;;8.50;;
37781;SDS011;23621;50.878;4.584;2024-03-17T06:10:21;9.88;;;8.88;;
37781;SDS011;23621;50.878;4.584;2024-03-17T06:12:24;9.57;;;8.60;;
37781;SDS011;23621;50.878;4.584;2024-03-17T06:14:25;9.43;;;8.48;;
37781;SDS011;23621;50.878;4.584;2024-03-17T06:16:25;9.45;;;8.55;;
37781;SDS011;23621;50.878;4.584;2024-03-17T06:18:26;10.15;;;8.95;;
37781;SDS011;23621;50.878;4.584;2024-03-17T06:20:27;10.20;;;8.63;;
37781;SDS011;23621;50.878;4.584;2024-03-17T06:22:28;9.15;;;8.25;;
37781;SDS011;23621;50.878;4.584;2024-03-17T06:24:29;9.32;;;8.38;;
37781;SDS011;23621;50.878;4.584;2024-03-17T06:26:29;11.02;;;8.68;;
37781;SDS011;23621;50.878;4.584;2024-03-17T06:28:33;9.38;;;8.45;;
37781;SDS011;23621;50.878;4.584;2024-03-17T06:30:34;8.75;;;7.93;;
37781;SDS011;23621;50.878;4.584;2024-03-17T06:32:36;9.25;;;8.40;;
37781;SDS011;23621;50.878;4.584;2024-03-17T06:34:36;10.15;;;8.10;;
37781;SDS011;23621;50.878;4.584;2024-03-17T06:36:37;10.80;;;8.82;;
37781;SDS011;23621;50.878;4.584;2024-03-17T06:38:38;10.32;;;8.07;;
37781;SDS011;23621;50.878;4.584;2024-03-17T06:40:39;8.27;;;7.47;;
37781;SDS011;23621;50.878;4.584;2024-03-17T06:42:39;8.73;;;7.82;;
37781;SDS011;23621;50.878;4.584;2024-03-17T06:44:40;8.82;;;7.93;;
37781;SDS011;23621;50.878;4.584;2024-03-17T06:46:41;9.85;;;8.77;;
37781;SDS011;23621;50.878;4.584;2024-03-17T06:48:42;10.88;;;8.18;;
37781;SDS011;23621;50.878;4.584;2024-03-17T06:50:42;10.68;;;8.27;;
37781;SDS011;23621;50.878;4.584;2024-03-17T06:52:44;9.23;;;8.23;;
37781;SDS011;23621;50.878;4.584;2024-03-17T06:54:46;10.30;;;7.65;;
37781;SDS011;23621;50.878;4.584;2024-03-17T06:56:49;10.63;;;8.32;;
37781;SDS011;23621;50.878;4.584;2024-03-17T06:58:51;8.50;;;7.63;;
37781;SDS011;23621;50.878;4.584;2024-03-17T07:00:53;11.88;;;8.80;;
37781;SDS011;23621;50.878;4.584;2024-03-17T07:02:54;9.00;;;7.90;;
37781;SDS011;23621;50.878;4.584;2024-03-17T07:04:55;10.93;;;8.63;;
37781;SDS011;23621;50.878;4.584;2024-03-17T07:06:57;14.18;;;8.48;;
37781;SDS011;23621;50.878;4.584;2024-03-17T07:08:58;9.90;;;7.97;;
37781;SDS011;23621;50.878;4.584;2024-03-17T07:11:02;10.88;;;8.40;;
37781;SDS011;23621;50.878;4.584;2024-03-17T07:13:05;9.60;;;8.40;;
37781;SDS011;23621;50.878;4.584;2024-03-17T07:15:06;8.77;;;7.88;;
37781;SDS011;23621;50.878;4.584;2024-03-17T07:17:06;10.65;;;8.30;;
37781;SDS011;23621;50.878;4.584;2024-03-17T07:19:07;9.18;;;8.18;;
37781;SDS011;23621;50.878;4.584;2024-03-17T07:21:08;10.27;;;8.13;;
37781;SDS011;23621;50.878;4.584;2024-03-17T07:23:10;10.10;;;8.85;;
37781;SDS011;23621;50.878;4.584;2024-03-17T07:25:11;10.68;;;8.40;;
37781;SDS011;23621;50.878;4.584;2024-03-17T07:27:12;9.82;;;8.93;;
37781;SDS011;23621;50.878;4.584;2024-03-17T07:29:14;13.27;;;9.00;;
37781;SDS011;23621;50.878;4.584;2024-03-17T07:31:15;9.73;;;8.35;;
37781;SDS011;23621;50.878;4.584;2024-03-17T07:33:16;10.77;;;8.55;;
37781;SDS011;23621;50.878;4.584;2024-03-17T07:35:17;9.82;;;8.60;;
37781;SDS011;23621;50.878;4.584;2024-03-17T07:37:18;10.23;;;8.30;;
37781;SDS011;23621;50.878;4.584;2024-03-17T07:39:18;9.43;;;8.15;;
37781;SDS011;23621;50.878;4.584;2024-03-17T07:41:19;10.52;;;8.98;;
37781;SDS011;23621;50.878;4.584;2024-03-17T07:43:20;9.30;;;8.38;;
37781;SDS011;23621;50.878;4.584;2024-03-17T07:45:20;8.88;;;7.97;;
37781;SDS011;23621;50.878;4.584;2024-03-17T07:47:21;9.27;;;8.18;;
37781;SDS011;23621;50.878;4.584;2024-03-17T07:49:21;9.70;;;8.68;;
37781;SDS011;23621;50.878;4.584;2024-03-17T07:51:22;8.52;;;7.65;;
37781;SDS011;23621;50.878;4.584;2024-03-17T07:53:23;9.05;;;7.70;;
37781;SDS011;23621;50.878;4.584;2024-03-17T07:55:24;9.10;;;8.20;;
37781;SDS011;23621;50.878;4.584;2024-03-17T07:57:26;10.23;;;8.20;;
37781;SDS011;23621;50.878;4.584;2024-03-17T07:59:27;8.15;;;7.35;;
37781;SDS011;23621;50.878;4.584;2024-03-17T08:01:28;10.98;;;8.15;;
37781;SDS011;23621;50.878;4.584;2024-03-17T08:03:29;9.15;;;8.20;;
37781;SDS011;23621;50.878;4.584;2024-03-17T08:05:31;8.55;;;7.70;;
37781;SDS011;23621;50.878;4.584;2024-03-17T08:07:32;10.55;;;7.50;;
37781;SDS011;23621;50.878;4.584;2024-03-17T08:09:32;7.75;;;7.05;;
37781;SDS011;23621;50.878;4.584;2024-03-17T08:11:33;8.82;;;7.90;;
37781;SDS011;23621;50.878;4.584;2024-03-17T08:13:34;7.60;;;6.70;;
37781;SDS011;23621;50.878;4.584;2024-03-17T08:15:35;7.78;;;6.95;;
37781;SDS011;23621;50.878;4.584;2024-03-17T08:17:37;8.20;;;7.38;;
37781;SDS011;23621;50.878;4.584;2024-03-17T08:19:37;7.97;;;7.18;;
37781;SDS011;23621;50.878;4.584;2024-03-17T08:21:39;8.02;;;6.68;;
37781;SDS011;23621;50.878;4.584;2024-03-17T08:23:39;9.20;;;7.28;;
37781;SDS011;23621;50.878;4.584;2024-03-17T08:25:41;7.63;;;6.22;;
37781;SDS011;23621;50.878;4.584;2024-03-17T08:27:42;8.18;;;6.88;;
37781;SDS011;23621;50.878;4.584;2024-03-17T08:29:43;7.43;;;6.68;;
37781;SDS011;23621;50.878;4.584;2024-03-17T08:31:43;7.90;;;6.80;;
37781;SDS011;23621;50.878;4.584;2024-03-17T08:33:45;7.35;;;6.63;;
37781;SDS011;23621;50.878;4.584;2024-03-17T08:36:03;9.68;;;6.72;;
37781;SDS011;23621;50.878;4.584;2024-03-17T08:38:04;7.35;;;6.22;;
37781;SDS011;23621;50.878;4.584;2024-03-17T08:40:05;8.23;;;6.25;;
37781;SDS011;23621;50.878;4.584;2024-03-17T08:42:07;6.95;;;6.25;;
37781;SDS011;23621;50.878;4.584;2024-03-17T08:44:07;6.55;;;5.68;;
37781;SDS011;23621;50.878;4.584;2024-03-17T08:46:08;6.38;;;5.78;;
37781;SDS011;23621;50.878;4.584;2024-03-17T08:48:11;8.48;;;6.30;;
37781;SDS011;23621;50.878;4.584;2024-03-17T08:50:12;7.20;;;6.10;;
37781;SDS011;23621;50.878;4.584;2024-03-17T08:52:13;7.45;;;6.38;;
37781;SDS011;23621;50.878;4.584;2024-03-17T08:54:13;8.10;;;5.82;;
37781;SDS011;23621;50.878;4.584;2024-03-17T08:56:14;8.20;;;5.65;;
37781;SDS011;23621;50.878;4.584;2024-03-17T08:58:15;7.75;;;6.20;;
37781;SDS011;23621;50.878;4.584;2024-03-17T09:00:16;9.27;;;5.88;;
37781;SDS011;23621;50.878;4.584;2024-03-17T09:02:17;6.95;;;5.60;;
37781;SDS011;23621;50.878;4.584;2024-03-17T09:04:17;6.10;;;5.57;;
37781;SDS011;23621;50.878;4.584;2024-03-17T09:06:18;7.93;;;5.40;;
37781;SDS011;23621;50.878;4.584;2024-03-17T09:08:23;8.20;;;5.40;;
37781;SDS011;23621;50.878;4.584;2024-03-17T09:10:26;5.90;;;5.30;;
37781;SDS011;23621;50.878;4.584;2024-03-17T09:12:26;6.05;;;5.13;;
37781;SDS011;23621;50.878;4.584;2024-03-17T09:14:27;5.90;;;5.20;;
37781;SDS011;23621;50.878;4.584;2024-03-17T09:16:28;6.30;;;4.80;;
37781;SDS011;23621;50.878;4.584;2024-03-17T09:18:31;7.53;;;5.40;;
37781;SDS011;23621;50.878;4.584;2024-03-17T09:20:33;6.38;;;5.13;;
37781;SDS011;23621;50.878;4.584;2024-03-17T09:22:33;7.78;;;5.18;;
37781;SDS011;23621;50.878;4.584;2024-03-17T09:24:34;5.97;;;4.90;;
37781;SDS011;23621;50.878;4.584;2024-03-17T09:26:34;5.93;;;5.03;;
37781;SDS011;23621;50.878;4.584;2024-03-17T09:28:35;5.82;;;5.00;;
37781;SDS011;23621;50.878;4.584;2024-03-17T09:30:36;7.65;;;5.35;;
37781;SDS011;23621;50.878;4.584;2024-03-17T09:32:37;5.55;;;4.82;;
37781;SDS011;23621;50.878;4.584;2024-03-17T09:34:38;6.85;;;5.03;;
37781;SDS011;23621;50.878;4.584;2024-03-17T09:36:39;5.85;;;4.80;;
37781;SDS011;23621;50.878;4.584;2024-03-17T09:38:39;6.63;;;4.70;;
37781;SDS011;23621;50.878;4.584;2024-03-17T09:40:45;7.38;;;4.68;;
37781;SDS011;23621;50.878;4.584;2024-03-17T09:42:47;5.57;;;4.80;;
37781;SDS011;23621;50.878;4.584;2024-03-17T09:44:48;4.82;;;4.38;;
37781;SDS011;23621;50.878;4.584;2024-03-17T09:46:50;5.78;;;4.72;;
37781;SDS011;23621;50.878;4.584;2024-03-17T09:48:51;6.47;;;4.93;;
37781;SDS011;23621;50.878;4.584;2024-03-17T09:50:53;9.27;;;4.97;;
37781;SDS011;23621;50.878;4.584;2024-03-17T09:52:54;5.10;;;4.60;;
37781;SDS011;23621;50.878;4.584;2024-03-17T09:54:59;6.30;;;4.32;;
37781;SDS011;23621;50.878;4.584;2024-03-17T09:57:01;5.82;;;5.00;;
37781;SDS011;23621;50.878;4.584;2024-03-17T09:59:07;5.32;;;4.47;;
37781;SDS011;23621;50.878;4.584;2024-03-17T10:01:08;5.43;;;4.45;;
37781;SDS011;23621;50.878;4.584;2024-03-17T10:03:09;6.43;;;5.00;;
37781;SDS011;23621;50.878;4.584;2024-03-17T10:05:23;5.18;;;3.92;;
37781;SDS011;23621;50.878;4.584;2024-03-17T10:07:37;9.20;;;4.40;;
37781;SDS011;23621;50.878;4.584;2024-03-17T10:09:38;8.63;;;4.63;;
37781;SDS011;23621;50.878;4.584;2024-03-17T10:11:41;6.03;;;4.25;;
37781;SDS011;23621;50.878;4.584;2024-03-17T10:13:42;5.00;;;4.50;;
37781;SDS011;23621;50.878;4.584;2024-03-17T10:15:50;6.30;;;4.50;;
37781;SDS011;23621;50.878;4.584;2024-03-17T10:17:51;4.65;;;4.10;;
37781;SDS011;23621;50.878;4.584;2024-03-17T10:19:51;8.10;;;4.47;;
37781;SDS011;23621;50.878;4.584;2024-03-17T10:21:58;6.97;;;4.20;;
37781;SDS011;23621;50.878;4.584;2024-03-17T10:24:04;4.70;;;4.28;;
37781;SDS011;23621;50.878;4.584;2024-03-17T10:26:14;5.78;;;3.78;;
37781;SDS011;23621;50.878;4.584;2024-03-17T10:28:15;5.53;;;4.30;;
37781;SDS011;23621;50.878;4.584;2024-03-17T10:30:17;6.28;;;4.00;;
37781;SDS011;23621;50.878;4.584;2024-03-17T10:32:22;5.05;;;3.80;;
37781;SDS011;23621;50.878;4.584;2024-03-17T10:34:25;5.22;;;3.97;;
37781;SDS011;23621;50.878;4.584;2024-03-17T10:36:28;4.82;;;3.92;;
37781;SDS011;23621;50.878;4.584;2024-03-17T10:38:29;5.85;;;4.18;;
37781;SDS011;23621;50.878;4.584;2024-03-17T10:40:30;4.57;;;4.18;;
37781;SDS011;23621;50.878;4.584;2024-03-17T10:42:39;6.82;;;4.22;;
37781;SDS011;23621;50.878;4.584;2024-03-17T10:44:41;4.65;;;4.20;;
37781;SDS011;23621;50.878;4.584;2024-03-17T10:46:45;7.43;;;4.25;;
37781;SDS011;23621;50.878;4.584;2024-03-17T10:48:46;6.50;;;4.10;;
37781;SDS011;23621;50.878;4.584;2024-03-17T10:50:48;5.95;;;3.90;;
37781;SDS011;23621;50.878;4.584;2024-03-17T10:52:52;6.07;;;4.18;;
37781;SDS011;23621;50.878;4.584;2024-03-17T10:54:58;6.35;;;3.92;;
37781;SDS011;23621;50.878;4.584;2024-03-17T10:59:33;6.63;;;3.65;;
37781;SDS011;23621;50.878;4.584;2024-03-17T11:01:41;4.50;;;3.75;;
37781;SDS011;23621;50.878;4.584;2024-03-17T11:03:42;6.05;;;3.78;;
37781;SDS011;23621;50.878;4.584;2024-03-17T11:05:48;6.35;;;3.55;;
37781;SDS011;23621;50.878;4.584;2024-03-17T11:07:52;4.90;;;3.72;;
37781;SDS011;23621;50.878;4.584;2024-03-17T11:09:55;7.18;;;3.60;;
37781;SDS011;23621;50.878;4.584;2024-03-17T11:11:57;6.97;;;3.50;;
37781;SDS011;23621;50.878;4.584;2024-03-17T11:14:20;5.40;;;3.20;;
37781;SDS011;23621;50.878;4.584;2024-03-17T11:16:25;4.00;;;2.97;;
37781;SDS011;23621;50.878;4.584;2024-03-17T11:18:28;4.78;;;2.95;;
37781;SDS011;23621;50.878;4.584;2024-03-17T11:20:31;4.32;;;2.72;;
37781;SDS011;23621;50.878;4.584;2024-03-17T11:22:44;5.90;;;3.42;;
37781;SDS011;23621;50.878;4.584;2024-03-17T11:24:45;5.70;;;3.10;;
37781;SDS011;23621;50.878;4.584;2024-03-17T11:26:45;5.90;;;3.00;;
37781;SDS011;23621;50.878;4.584;2024-03-17T11:28:46;4.28;;;2.85;;
37781;SDS011;23621;50.878;4.584;2024-03-17T11:30:48;5.05;;;3.10;;
37781;SDS011;23621;50.878;4.584;2024-03-17T11:33:00;4.53;;;2.97;;
37781;SDS011;23621;50.878;4.584;2024-03-17T11:35:13;5.07;;;3.13;;
37781;SDS011;23621;50.878;4.584;2024-03-17T11:37:40;3.65;;;2.55;;
37781;SDS011;23621;50.878;4.584;2024-03-17T11:41:50;4.70;;;3.10;;
37781;SDS011;23621;50.878;4.584;2024-03-17T11:43:51;4.75;;;3.00;;
37781;SDS011;23621;50.878;4.584;2024-03-17T11:46:21;4.88;;;2.80;;
37781;SDS011;23621;50.878;4.584;2024-03-17T11:48:22;5.32;;;2.92;;
37781;SDS011;23621;50.878;4.584;2024-03-17T11:50:23;5.88;;;3.15;;
37781;SDS011;23621;50.878;4.584;2024-03-17T11:52:23;4.03;;;3.03;;
37781;SDS011;23621;50.878;4.584;2024-03-17T11:54:25;4.70;;;2.95;;
37781;SDS011;23621;50.878;4.584;2024-03-17T11:56:29;3.17;;;2.80;;
37781;SDS011;23621;50.878;4.584;2024-03-17T11:58:30;6.07;;;2.97;;
37781;SDS011;23621;50.878;4.584;2024-03-17T12:00:33;4.47;;;2.95;;
37781;SDS011;23621;50.878;4.584;2024-03-17T12:02:33;4.82;;;3.05;;
37781;SDS011;23621;50.878;4.584;2024-03-17T12:04:38;6.38;;;3.08;;
37781;SDS011;23621;50.878;4.584;2024-03-17T12:06:44;6.53;;;3.13;;
37781;SDS011;23621;50.878;4.584;2024-03-17T12:09:17;3.67;;;2.70;;
37781;SDS011;23621;50.878;4.584;2024-03-17T12:11:22;3.85;;;2.92;;
37781;SDS011;23621;50.878;4.584;2024-03-17T12:13:23;5.90;;;3.13;;
37781;SDS011;23621;50.878;4.584;2024-03-17T12:15:24;3.80;;;2.70;;